createdAt,value
2022-08-20T00:02:30.062Z,100458.91
2022-08-20T00:07:35.295Z,100461.09
2022-08-20T00:12:44.161Z,100462.16
2022-08-20T00:17:48.106Z,100459.41
2022-08-20T00:22:53.398Z,100456.69
2022-08-20T00:27:57.648Z,100454.66
2022-08-20T00:33:04.438Z,100453.97
2022-08-20T00:38:09.946Z,100452.63
2022-08-20T00:43:35.562Z,100450.50
2022-08-20T00:48:42.598Z,100452.72
2022-08-20T00:53:47.847Z,100459.31
2022-08-20T00:58:52.901Z,100443.69
2022-08-20T01:03:56.669Z,100439.63
2022-08-20T01:09:02.667Z,100440.78
2022-08-20T01:14:11.022Z,100433.22
2022-08-20T01:19:29.708Z,100435.50
2022-08-20T01:24:39.270Z,100428.81
2022-08-20T01:29:44.867Z,100425.16
2022-08-20T01:34:48.449Z,100417.84
2022-08-20T01:39:52.067Z,100413.34
2022-08-20T01:44:58.032Z,100417.00
2022-08-20T01:50:15.640Z,100410.66
2022-08-20T01:55:22.268Z,100409.44
2022-08-20T02:00:28.216Z,100418.56
2022-08-20T02:05:32.273Z,100424.84
2022-08-20T02:10:36.020Z,100409.38
2022-08-20T02:15:43.170Z,100411.72
2022-08-20T02:20:47.766Z,100416.03
2022-08-20T02:25:51.401Z,100419.16
2022-08-20T02:30:56.710Z,100411.28
2022-08-20T02:36:00.342Z,100420.84
2022-08-20T02:41:03.990Z,100428.75
2022-08-20T02:46:09.514Z,100432.56
2022-08-20T02:51:13.237Z,100418.84
2022-08-20T02:56:17.039Z,100430.00
2022-08-20T03:01:22.301Z,100429.03
2022-08-20T03:06:26.303Z,100429.91
2022-08-20T03:11:29.997Z,100428.91
2022-08-20T03:16:35.264Z,100424.34
2022-08-20T03:21:38.861Z,100426.50
2022-08-20T03:26:42.602Z,100433.34
2022-08-20T03:31:47.894Z,100425.25
2022-08-20T03:36:51.458Z,100431.34
2022-08-20T03:41:55.077Z,100436.28
2022-08-20T03:47:00.290Z,100444.41
2022-08-20T03:52:04.317Z,100447.16
2022-08-20T03:57:13.257Z,100452.53
2022-08-20T04:02:18.689Z,100453.44
2022-08-20T04:07:24.667Z,100450.00
2022-08-20T04:12:28.614Z,100452.25
2022-08-20T04:17:33.851Z,100452.13
2022-08-20T04:22:36.701Z,100450.94
2022-08-20T04:27:40.853Z,100455.94
2022-08-20T04:32:46.087Z,100453.06
2022-08-20T04:37:49.058Z,100453.38
2022-08-20T04:42:53.273Z,100446.38
2022-08-20T04:48:03.859Z,100456.53
2022-08-20T04:53:11.135Z,100454.25
2022-08-20T04:58:17.752Z,100459.19
2022-08-20T05:03:23.626Z,100466.41
2022-08-20T05:08:28.599Z,100471.25
2022-08-20T05:13:32.274Z,100475.06
2022-08-20T05:18:37.523Z,100469.91
2022-08-20T05:23:41.311Z,100464.06
2022-08-20T05:28:47.218Z,100459.69
2022-08-20T05:34:02.999Z,100464.28
2022-08-20T05:39:06.662Z,100468.44
2022-08-20T05:44:11.422Z,100460.81
2022-08-20T05:49:18.921Z,100477.47
2022-08-20T05:54:23.105Z,100477.66
2022-08-20T05:59:27.118Z,100473.78
2022-08-20T06:04:32.467Z,100478.88
2022-08-20T06:09:36.165Z,100475.22
2022-08-20T06:14:39.863Z,100477.25
2022-08-20T06:19:46.925Z,100479.13
2022-08-20T06:24:50.641Z,100473.84
2022-08-20T06:29:54.900Z,100481.88
2022-08-20T06:35:01.067Z,100471.66
2022-08-20T06:40:07.621Z,100484.19
2022-08-20T06:45:12.157Z,100481.47
2022-08-20T06:50:19.902Z,100477.38
2022-08-20T06:55:23.949Z,100480.94
2022-08-20T07:00:28.933Z,100482.22
2022-08-20T07:05:35.976Z,100476.66
2022-08-20T07:10:39.865Z,100483.53
2022-08-20T07:15:44.170Z,100483.03
2022-08-20T07:20:49.862Z,100487.72
2022-08-20T07:25:54.613Z,100488.13
2022-08-20T07:30:58.519Z,100474.94
2022-08-20T07:36:17.665Z,100483.47
2022-08-20T07:41:21.597Z,100480.38
2022-08-20T07:46:25.198Z,100476.22
2022-08-20T07:51:36.552Z,100466.44
2022-08-20T07:56:40.158Z,100455.69
2022-08-20T08:01:44.037Z,100454.03
2022-08-20T08:06:49.966Z,100461.50
2022-08-20T08:11:53.588Z,100455.31
2022-08-20T08:17:00.751Z,100455.50
2022-08-20T08:22:07.473Z,100442.19
2022-08-20T08:27:11.699Z,100444.75
2022-08-20T08:32:15.269Z,100459.38
2022-08-20T08:37:20.545Z,100463.47
2022-08-20T08:42:30.995Z,100456.06
2022-08-20T08:47:39.942Z,100447.59
2022-08-20T08:52:54.998Z,100453.25
2022-08-20T08:58:16.487Z,100448.31
2022-08-20T09:03:27.221Z,100449.13
2022-08-20T09:08:36.631Z,100450.84
2022-08-20T09:13:41.148Z,100447.44
2022-08-20T09:18:44.995Z,100444.81
2022-08-20T09:23:50.218Z,100442.97
2022-08-20T09:28:53.788Z,100448.38
2022-08-20T09:33:57.351Z,100435.47
2022-08-20T09:39:03.357Z,100432.47
2022-08-20T09:44:07.065Z,100436.00
2022-08-20T09:49:10.686Z,100441.09
2022-08-20T09:54:16.120Z,100433.91
2022-08-20T09:59:19.727Z,100439.25
2022-08-20T10:04:23.369Z,100438.72
2022-08-20T10:09:28.658Z,100436.84
2022-08-20T10:14:32.413Z,100445.03
2022-08-20T10:19:36.118Z,100440.63
2022-08-20T10:24:41.356Z,100437.53
2022-08-20T10:29:47.021Z,100447.59
2022-08-20T10:34:50.024Z,100439.09
2022-08-20T10:39:56.097Z,100442.50
2022-08-20T10:44:59.719Z,100436.06
2022-08-20T10:50:05.582Z,100429.47
2022-08-20T10:55:10.575Z,100430.25
2022-08-20T11:00:17.121Z,100434.88
2022-08-20T11:05:20.767Z,100441.69
2022-08-20T11:10:27.716Z,100445.88
2022-08-20T11:15:31.636Z,100444.31
2022-08-20T11:20:36.311Z,100451.00
2022-08-20T11:25:41.520Z,100440.28
2022-08-20T11:30:45.120Z,100450.31
2022-08-20T11:35:50.080Z,100452.03
2022-08-20T11:40:55.494Z,100451.09
2022-08-20T11:45:59.258Z,100451.38
2022-08-20T11:51:02.812Z,100460.91
2022-08-20T11:56:08.650Z,100457.56
2022-08-20T12:01:17.307Z,100457.50
2022-08-20T12:06:20.870Z,100455.97
2022-08-20T12:11:27.108Z,100461.31
2022-08-20T12:16:30.664Z,100466.72
2022-08-20T12:21:35.101Z,100469.63
2022-08-20T12:26:40.377Z,100467.63
2022-08-20T12:31:43.974Z,100466.66
2022-08-20T12:36:47.555Z,100466.91
2022-08-20T12:41:52.762Z,100478.34
2022-08-20T12:47:08.045Z,100479.19
2022-08-20T12:52:11.640Z,100481.13
2022-08-20T12:57:17.675Z,100489.19
2022-08-20T13:02:21.316Z,100497.53
2022-08-20T13:07:24.948Z,100494.16
2022-08-20T13:12:30.215Z,100499.34
2022-08-20T13:17:38.883Z,100510.25
2022-08-20T13:22:43.899Z,100517.41
2022-08-20T13:27:49.526Z,100520.06
2022-08-20T13:32:53.299Z,100523.63
2022-08-20T13:37:56.922Z,100544.72
2022-08-20T13:43:06.169Z,100551.13
2022-08-20T13:48:15.176Z,100560.34
2022-08-20T13:53:19.037Z,100557.19
2022-08-20T13:58:24.286Z,100558.84
2022-08-20T14:03:27.843Z,100563.88
2022-08-20T14:08:31.588Z,100571.38
2022-08-20T14:13:36.804Z,100577.34
2022-08-20T14:18:40.382Z,100587.72
2022-08-20T14:23:44.033Z,100585.53
2022-08-20T14:28:49.247Z,100574.66
2022-08-20T14:33:52.826Z,100575.53
2022-08-20T14:38:56.395Z,100578.88
2022-08-20T14:44:01.602Z,100589.16
2022-08-20T14:49:09.041Z,100588.38
2022-08-20T14:54:12.643Z,100596.56
2022-08-20T14:59:17.831Z,100603.34
2022-08-20T15:04:21.406Z,100609.88
2022-08-20T15:09:25.001Z,100616.13
2022-08-20T15:14:30.293Z,100622.44
2022-08-20T15:19:36.457Z,100620.50
2022-08-20T15:24:40.112Z,100619.25
2022-08-20T15:29:48.019Z,100626.59
2022-08-20T15:34:51.612Z,100633.00
2022-08-20T15:39:56.294Z,100644.63
2022-08-20T15:45:01.565Z,100648.56
2022-08-20T15:50:14.116Z,100653.25
2022-08-20T15:55:18.245Z,100654.28
2022-08-20T16:00:26.228Z,100644.09
2022-08-20T16:05:40.058Z,100640.59
2022-08-20T16:10:54.695Z,100645.66
2022-08-20T16:16:05.980Z,100651.50
2022-08-20T16:21:13.723Z,100649.16
2022-08-20T16:26:33.036Z,100650.41
2022-08-20T16:31:46.128Z,100650.75
2022-08-20T16:37:03.538Z,100644.00
2022-08-20T16:42:10.793Z,100648.00
2022-08-20T16:47:19.478Z,100647.31
2022-08-20T16:52:23.157Z,100646.91
2022-08-20T16:57:28.733Z,100644.63
2022-08-20T17:02:33.973Z,100657.22
2022-08-20T17:07:50.726Z,100654.81
2022-08-20T17:12:57.636Z,100659.56
2022-08-20T17:18:20.938Z,100660.41
2022-08-20T17:23:24.552Z,100651.28
2022-08-20T17:28:30.824Z,100650.56
2022-08-20T17:33:51.689Z,100657.03
2022-08-20T17:38:57.602Z,100659.69
2022-08-20T17:44:04.001Z,100656.34
2022-08-20T17:49:15.107Z,100657.28
2022-08-20T17:54:23.134Z,100666.69
2022-08-20T17:59:59.556Z,100663.91
2022-08-20T18:04:58.285Z,100655.16
2022-08-20T18:10:07.197Z,100652.75
2022-08-20T18:15:16.202Z,100651.38
2022-08-20T18:20:50.711Z,100650.72
2022-08-20T18:25:58.467Z,100649.84
2022-08-20T18:31:04.110Z,100645.81
2022-08-20T18:36:23.274Z,100648.09
2022-08-20T18:41:30.462Z,100636.63
2022-08-20T18:46:34.894Z,100636.41
2022-08-20T18:51:41.798Z,100644.88
2022-08-20T18:56:45.831Z,100644.41
2022-08-20T19:01:50.787Z,100647.66
2022-08-20T19:07:00.079Z,100632.53
2022-08-20T19:12:24.310Z,100631.97
2022-08-20T19:17:57.544Z,100629.88
2022-08-20T19:23:07.558Z,100612.13
2022-08-20T19:28:20.990Z,100607.13
2022-08-20T19:33:29.885Z,100600.59
2022-08-20T19:38:35.661Z,100608.75
2022-08-20T19:43:44.000Z,100607.09
2022-08-20T19:49:00.664Z,100595.97
2022-08-20T19:54:06.011Z,100600.00
2022-08-20T19:59:11.134Z,100590.75
2022-08-20T20:04:18.400Z,100587.72
2022-08-20T20:09:26.155Z,100586.38
2022-08-20T20:14:31.804Z,100582.19
2022-08-20T20:19:47.149Z,100580.97
2022-08-20T20:25:05.307Z,100576.25
2022-08-20T20:30:12.922Z,100577.03
2022-08-20T20:35:27.586Z,100576.38
2022-08-20T20:40:36.084Z,100566.59
2022-08-20T20:45:42.771Z,100560.97
2022-08-20T20:50:47.346Z,100547.72
2022-08-20T20:55:58.142Z,100547.72
2022-08-20T21:01:01.741Z,100549.22
2022-08-20T21:06:05.587Z,100538.34
2022-08-20T21:11:12.876Z,100533.19
2022-08-20T21:16:17.046Z,100527.88
2022-08-20T21:21:20.617Z,100523.34
2022-08-20T21:26:26.853Z,100523.09
2022-08-20T21:31:33.716Z,100515.66
2022-08-20T21:36:37.548Z,100510.28
2022-08-20T21:41:42.606Z,100509.22
2022-08-20T21:46:46.552Z,100505.50
2022-08-20T21:51:50.617Z,100496.03
2022-08-20T21:56:59.062Z,100487.06
2022-08-20T22:02:02.633Z,100499.16
2022-08-20T22:07:07.478Z,100483.66
2022-08-20T22:12:18.841Z,100487.66
2022-08-20T22:17:22.494Z,100480.81
2022-08-20T22:22:26.060Z,100478.78
2022-08-20T22:27:31.472Z,100473.69
2022-08-20T22:32:51.320Z,100474.66
2022-08-20T22:37:55.925Z,100476.47
2022-08-20T22:43:01.147Z,100468.84
2022-08-20T22:48:06.326Z,100471.50
2022-08-20T22:53:10.933Z,100467.75
2022-08-20T22:58:16.348Z,100466.78
2022-08-20T23:03:23.500Z,100468.81
2022-08-20T23:08:43.967Z,100470.41
2022-08-20T23:13:49.225Z,100467.63
2022-08-20T23:18:53.016Z,100459.56
2022-08-20T23:23:56.585Z,100464.31
2022-08-20T23:29:01.851Z,100468.00
2022-08-20T23:34:05.444Z,100463.78
2022-08-20T23:39:09.140Z,100464.63
2022-08-20T23:44:26.373Z,100461.44
2022-08-20T23:49:31.937Z,100469.22
2022-08-20T23:54:35.546Z,100465.28
2022-08-20T23:59:40.770Z,100461.00
